createdAt,value
2018-12-22T00:00:26.476Z,91.90
2018-12-22T00:02:54.786Z,91.90
2018-12-22T00:05:23.052Z,91.90
2018-12-22T00:07:52.269Z,91.90
2018-12-22T00:10:20.604Z,91.90
2018-12-22T00:12:48.821Z,91.90
2018-12-22T00:15:17.089Z,91.90
2018-12-22T00:17:45.328Z,91.90
2018-12-22T00:20:13.599Z,91.90
2018-12-22T00:22:42.458Z,91.90
2018-12-22T00:25:10.996Z,91.90
2018-12-22T00:27:39.251Z,91.90
2018-12-22T00:30:08.104Z,91.90
2018-12-22T00:32:36.788Z,91.90
2018-12-22T00:35:05.511Z,91.90
2018-12-22T00:37:33.790Z,91.90
2018-12-22T00:40:02.044Z,91.90
2018-12-22T00:42:30.257Z,91.90
2018-12-22T00:44:58.465Z,91.90
2018-12-22T00:47:26.726Z,91.90
2018-12-22T00:49:54.972Z,91.90
2018-12-22T00:52:23.204Z,91.90
2018-12-22T00:54:51.412Z,91.90
2018-12-22T00:57:19.720Z,91.90
2018-12-22T00:59:47.945Z,91.90
2018-12-22T01:02:16.211Z,91.90
2018-12-22T01:04:44.494Z,91.90
2018-12-22T01:07:12.796Z,91.90
2018-12-22T01:09:41.051Z,91.90
2018-12-22T01:12:09.360Z,91.90
2018-12-22T01:14:37.548Z,91.90
2018-12-22T01:17:05.821Z,91.90
2018-12-22T01:19:34.126Z,91.90
2018-12-22T01:22:02.459Z,91.90
2018-12-22T01:24:31.097Z,91.90
2018-12-22T01:26:59.997Z,91.90
2018-12-22T01:29:28.994Z,91.90
2018-12-22T01:31:57.229Z,91.90
2018-12-22T01:34:25.602Z,91.90
2018-12-22T01:36:53.919Z,91.90
2018-12-22T01:39:22.195Z,91.90
2018-12-22T01:41:50.454Z,91.90
2018-12-22T01:44:18.805Z,91.90
2018-12-22T01:46:47.056Z,91.90
2018-12-22T01:49:15.364Z,91.90
2018-12-22T01:51:43.649Z,91.90
2018-12-22T01:54:12.446Z,91.90
2018-12-22T01:56:40.680Z,91.90
2018-12-22T01:59:08.880Z,91.90
2018-12-22T02:01:37.082Z,91.90
2018-12-22T02:04:05.378Z,91.90
2018-12-22T02:06:33.686Z,91.90
2018-12-22T02:09:01.970Z,91.90
2018-12-22T02:11:30.882Z,91.90
2018-12-22T02:13:59.231Z,91.90
2018-12-22T02:16:27.487Z,91.90
2018-12-22T02:18:55.902Z,91.90
2018-12-22T02:21:24.158Z,91.90
2018-12-22T02:23:52.379Z,91.90
2018-12-22T02:26:20.645Z,91.90
2018-12-22T02:28:56.588Z,91.90
2018-12-22T02:31:19.238Z,91.90
2018-12-22T02:33:47.573Z,91.90
2018-12-22T02:36:22.569Z,91.90
2018-12-22T02:38:50.843Z,91.90
2018-12-22T02:41:19.133Z,91.90
2018-12-22T02:43:47.426Z,91.90
2018-12-22T02:46:15.690Z,91.90
2018-12-22T02:48:43.927Z,91.90
2018-12-22T02:51:12.199Z,91.90
2018-12-22T02:53:40.467Z,91.90
2018-12-22T02:56:08.777Z,91.90
2018-12-22T02:58:37.106Z,91.90
2018-12-22T03:01:05.895Z,91.90
2018-12-22T03:03:34.178Z,91.90
2018-12-22T03:06:02.449Z,91.90
2018-12-22T03:08:30.686Z,91.90
2018-12-22T03:10:58.954Z,91.90
2018-12-22T03:13:27.737Z,91.90
2018-12-22T03:15:56.018Z,91.90
2018-12-22T03:18:24.261Z,91.90
2018-12-22T03:20:52.526Z,91.90
2018-12-22T03:23:20.801Z,91.90
2018-12-22T03:25:49.163Z,91.90
2018-12-22T03:28:17.405Z,91.90
2018-12-22T03:30:45.709Z,91.90
2018-12-22T03:33:13.995Z,91.90
2018-12-22T03:35:42.254Z,91.90
2018-12-22T03:38:10.490Z,91.90
2018-12-22T03:40:38.777Z,91.90
2018-12-22T03:43:07.025Z,91.90
2018-12-22T03:45:35.253Z,91.90
2018-12-22T03:48:04.396Z,91.90
2018-12-22T03:50:32.698Z,91.90
2018-12-22T03:53:00.994Z,91.90
2018-12-22T03:55:29.220Z,91.90
2018-12-22T03:57:57.569Z,91.90
2018-12-22T04:00:26.407Z,91.90
2018-12-22T04:02:54.620Z,91.90
2018-12-22T04:05:23.000Z,91.90
2018-12-22T04:07:51.962Z,91.90
2018-12-22T04:10:20.193Z,91.90
2018-12-22T04:12:48.572Z,91.90
2018-12-22T04:15:16.770Z,91.90
2018-12-22T04:17:45.173Z,91.90
2018-12-22T04:20:13.473Z,91.90
2018-12-22T04:22:42.100Z,91.90
2018-12-22T04:25:10.381Z,91.90
2018-12-22T04:27:38.681Z,91.90
2018-12-22T04:30:06.957Z,91.90
2018-12-22T04:32:35.848Z,91.90
2018-12-22T04:35:04.250Z,91.90
2018-12-22T04:37:32.497Z,91.90
2018-12-22T04:40:00.703Z,91.90
2018-12-22T04:42:28.995Z,91.90
2018-12-22T04:44:57.263Z,91.90
2018-12-22T04:47:25.531Z,91.90
2018-12-22T04:49:53.803Z,91.90
2018-12-22T04:52:22.057Z,91.90
2018-12-22T04:54:50.698Z,91.90
2018-12-22T04:57:19.022Z,91.90
2018-12-22T04:59:47.290Z,91.90
2018-12-22T05:02:15.555Z,91.90
2018-12-22T05:04:43.778Z,91.90
2018-12-22T05:07:12.045Z,91.90
2018-12-22T05:09:40.287Z,91.90
2018-12-22T05:12:09.145Z,91.90
2018-12-22T05:14:37.422Z,91.90
2018-12-22T05:17:05.696Z,91.90
2018-12-22T05:19:33.950Z,91.90
2018-12-22T05:22:02.229Z,91.90
2018-12-22T05:24:30.490Z,91.90
2018-12-22T05:26:58.781Z,91.90
2018-12-22T05:29:27.104Z,91.90
2018-12-22T05:31:55.376Z,91.90
2018-12-22T05:34:23.658Z,91.90
2018-12-22T05:36:51.872Z,91.90
2018-12-22T05:39:20.184Z,91.90
2018-12-22T05:41:48.960Z,91.90
2018-12-22T05:44:17.197Z,91.90
2018-12-22T05:46:45.404Z,91.90
2018-12-22T05:49:13.607Z,91.90
2018-12-22T05:51:41.889Z,91.90
2018-12-22T05:54:10.207Z,91.90
2018-12-22T05:56:38.873Z,91.90
2018-12-22T05:59:07.101Z,91.90
2018-12-22T06:01:35.353Z,91.90
2018-12-22T06:04:03.609Z,91.90
2018-12-22T06:06:32.105Z,91.90
2018-12-22T06:09:01.050Z,91.90
2018-12-22T06:11:29.349Z,91.90
2018-12-22T06:13:57.648Z,91.90
2018-12-22T06:16:26.861Z,91.90
2018-12-22T06:18:56.142Z,91.90
2018-12-22T06:21:24.398Z,91.90
2018-12-22T06:23:54.166Z,91.90
2018-12-22T06:26:22.445Z,91.90
2018-12-22T06:28:52.167Z,91.90
2018-12-22T06:31:20.441Z,91.90
2018-12-22T06:33:49.197Z,91.90
2018-12-22T06:36:17.390Z,91.90
2018-12-22T06:38:45.629Z,91.90
2018-12-22T06:41:13.922Z,91.90
2018-12-22T06:43:42.166Z,91.90
2018-12-22T06:46:11.392Z,91.90
2018-12-22T06:48:39.642Z,91.90
2018-12-22T06:51:09.088Z,91.90
2018-12-22T06:53:37.326Z,91.90
2018-12-22T06:56:05.889Z,91.90
2018-12-22T06:58:34.773Z,91.90
2018-12-22T07:01:03.017Z,91.90
2018-12-22T07:03:31.389Z,91.90
2018-12-22T07:06:00.632Z,91.90
2018-12-22T07:08:28.925Z,91.40
2018-12-22T07:10:57.235Z,91.20
2018-12-22T07:13:25.495Z,91.20
2018-12-22T07:15:53.771Z,91.10
2018-12-22T07:18:22.427Z,90.60
2018-12-22T07:20:51.580Z,90.60
2018-12-22T07:23:19.845Z,90.50
2018-12-22T07:25:48.109Z,89.90
2018-12-22T07:28:16.407Z,89.80
2018-12-22T07:30:44.599Z,89.70
2018-12-22T07:33:12.949Z,89.00
2018-12-22T07:35:41.229Z,89.00
2018-12-22T07:38:09.408Z,88.90
2018-12-22T07:40:37.827Z,88.60
2018-12-22T07:43:06.105Z,88.00
2018-12-22T07:45:34.380Z,88.00
2018-12-22T07:48:02.751Z,87.70
2018-12-22T07:50:31.094Z,87.50
2018-12-22T07:53:00.273Z,86.80
2018-12-22T07:55:32.645Z,86.70
2018-12-22T07:58:00.914Z,86.70
2018-12-22T08:00:34.800Z,87.00
2018-12-22T08:02:57.417Z,86.70
2018-12-22T08:05:25.689Z,86.70
2018-12-22T08:07:54.021Z,86.80
2018-12-22T08:10:22.326Z,86.80
2018-12-22T08:12:50.530Z,87.00
2018-12-22T08:15:19.000Z,87.20
2018-12-22T08:17:47.261Z,87.50
2018-12-22T08:20:15.460Z,87.60
2018-12-22T08:22:43.695Z,87.80
2018-12-22T08:25:11.955Z,88.10
2018-12-22T08:27:40.165Z,88.00
2018-12-22T08:30:09.161Z,88.10
2018-12-22T08:32:37.897Z,88.30
2018-12-22T08:35:07.346Z,88.50
2018-12-22T08:37:35.649Z,88.60
2018-12-22T08:40:03.653Z,89.00
2018-12-22T08:42:31.863Z,89.20
2018-12-22T08:45:00.173Z,88.80
2018-12-22T08:47:28.199Z,89.00
2018-12-22T08:49:56.426Z,88.80
2018-12-22T08:52:24.623Z,88.40
2018-12-22T08:54:52.802Z,88.60
2018-12-22T08:57:20.960Z,88.40
2018-12-22T08:59:49.673Z,88.40
2018-12-22T09:02:17.890Z,88.40
2018-12-22T09:04:46.075Z,87.90
2018-12-22T09:07:14.266Z,87.90
2018-12-22T09:09:42.538Z,87.50
2018-12-22T09:12:10.772Z,86.70
2018-12-22T09:14:38.984Z,86.50
2018-12-22T09:17:07.190Z,86.80
2018-12-22T09:19:35.354Z,86.00
2018-12-22T09:22:04.034Z,85.70
2018-12-22T09:24:33.079Z,85.80
2018-12-22T09:27:02.710Z,85.50
2018-12-22T09:29:31.496Z,85.30
2018-12-22T09:31:59.766Z,85.20
2018-12-22T09:34:28.002Z,85.00
2018-12-22T09:36:56.289Z,85.20
2018-12-22T09:39:24.469Z,85.30
2018-12-22T09:41:52.755Z,85.20
2018-12-22T09:44:20.944Z,85.50
2018-12-22T09:46:49.142Z,85.60
2018-12-22T09:49:17.479Z,85.90
2018-12-22T09:51:45.703Z,86.00
2018-12-22T09:54:14.215Z,86.30
2018-12-22T09:56:42.431Z,86.40
2018-12-22T09:59:10.670Z,86.30
2018-12-22T10:01:38.939Z,85.10
2018-12-22T10:04:07.732Z,84.90
2018-12-22T10:06:35.985Z,84.30
2018-12-22T10:09:05.985Z,84.30
2018-12-22T10:11:34.261Z,84.40
2018-12-22T10:14:02.670Z,84.10
2018-12-22T10:16:30.938Z,84.30
2018-12-22T10:18:59.185Z,83.80
2018-12-22T10:21:27.423Z,84.00
2018-12-22T10:23:56.762Z,84.60
2018-12-22T10:26:25.052Z,84.30
2018-12-22T10:28:53.396Z,84.20
2018-12-22T10:31:21.653Z,83.90
2018-12-22T10:33:50.981Z,83.60
2018-12-22T10:36:19.238Z,83.40
2018-12-22T10:38:47.457Z,83.30
2018-12-22T10:41:15.745Z,82.70
2018-12-22T10:43:44.033Z,83.40
2018-12-22T10:46:12.253Z,82.80
2018-12-22T10:48:40.527Z,83.00
2018-12-22T10:51:08.786Z,83.10
2018-12-22T10:53:37.118Z,83.00
2018-12-22T10:56:05.360Z,83.80
2018-12-22T10:58:34.137Z,82.90
2018-12-22T11:01:03.034Z,82.40
2018-12-22T11:03:32.178Z,82.00
2018-12-22T11:06:00.349Z,81.70
2018-12-22T11:08:29.331Z,82.00
2018-12-22T11:10:57.560Z,81.70
2018-12-22T11:13:25.806Z,81.60
2018-12-22T11:15:54.058Z,81.60
2018-12-22T11:18:22.282Z,81.80
2018-12-22T11:20:51.233Z,82.10
2018-12-22T11:23:20.615Z,82.00
2018-12-22T11:25:47.761Z,81.40
2018-12-22T11:28:16.009Z,81.50
2018-12-22T11:30:44.686Z,80.80
2018-12-22T11:33:12.929Z,80.70
2018-12-22T11:35:41.167Z,79.60
2018-12-22T11:38:09.825Z,79.20
2018-12-22T11:40:38.066Z,79.30
2018-12-22T11:43:06.293Z,79.10
2018-12-22T11:45:34.535Z,79.40
2018-12-22T11:48:16.560Z,79.50
2018-12-22T11:50:44.820Z,79.40
2018-12-22T11:53:13.698Z,79.60
2018-12-22T11:55:42.103Z,79.80
2018-12-22T11:58:10.405Z,79.90
2018-12-22T12:00:40.134Z,79.90
2018-12-22T12:03:08.353Z,79.90
2018-12-22T12:05:36.610Z,79.80
2018-12-22T12:08:04.884Z,79.60
2018-12-22T12:10:33.183Z,79.80
2018-12-22T12:13:02.841Z,79.90
2018-12-22T12:15:38.154Z,79.70
2018-12-22T12:18:21.131Z,79.80
2018-12-22T12:20:49.347Z,79.80
2018-12-22T12:23:17.613Z,79.80
2018-12-22T12:25:45.875Z,79.90
2018-12-22T12:28:14.845Z,80.10
2018-12-22T12:30:43.130Z,80.30
2018-12-22T12:33:11.473Z,80.40
2018-12-22T12:35:40.187Z,80.80
2018-12-22T12:38:08.510Z,80.90
2018-12-22T12:40:36.765Z,81.20
2018-12-22T12:43:05.082Z,81.40
2018-12-22T12:45:33.380Z,81.30
2018-12-22T12:48:01.669Z,81.50
2018-12-22T12:50:29.930Z,81.40
2018-12-22T12:52:58.640Z,80.60
2018-12-22T12:55:26.923Z,81.00
2018-12-22T12:57:55.536Z,81.50
2018-12-22T13:00:24.148Z,81.90
2018-12-22T13:02:52.428Z,82.10
2018-12-22T13:05:20.657Z,82.40
2018-12-22T13:07:48.987Z,82.50
2018-12-22T13:10:17.207Z,82.00
2018-12-22T13:12:58.496Z,81.50
2018-12-22T13:15:27.329Z,81.50
2018-12-22T13:17:56.586Z,81.30
2018-12-22T13:20:25.635Z,81.00
2018-12-22T13:22:53.890Z,80.80
2018-12-22T13:25:22.118Z,80.00
2018-12-22T13:27:50.377Z,79.90
2018-12-22T13:30:18.646Z,79.70
2018-12-22T13:32:46.851Z,79.40
2018-12-22T13:35:15.097Z,78.70
2018-12-22T13:37:43.344Z,78.40
2018-12-22T13:40:11.577Z,78.20
2018-12-22T13:42:39.903Z,78.10
2018-12-22T13:45:08.503Z,77.70
2018-12-22T13:47:37.701Z,76.90
2018-12-22T13:50:06.300Z,77.30
2018-12-22T13:52:34.571Z,77.20
2018-12-22T13:55:02.697Z,77.60
2018-12-22T13:57:30.949Z,78.50
2018-12-22T13:59:59.738Z,78.80
2018-12-22T14:02:28.255Z,79.60
2018-12-22T14:04:56.946Z,80.20
2018-12-22T14:07:25.906Z,80.40
2018-12-22T14:09:54.194Z,80.70
2018-12-22T14:12:22.479Z,80.80
2018-12-22T14:14:50.701Z,81.00
2018-12-22T14:17:22.627Z,81.40
2018-12-22T14:19:57.501Z,81.80
2018-12-22T14:22:25.993Z,82.30
2018-12-22T14:24:55.946Z,82.60
2018-12-22T14:27:24.240Z,82.80
2018-12-22T14:29:52.591Z,83.30
2018-12-22T14:32:26.827Z,83.40
2018-12-22T14:34:56.304Z,83.80
2018-12-22T14:37:24.646Z,84.20
2018-12-22T14:39:52.898Z,84.70
2018-12-22T14:42:21.119Z,85.40
2018-12-22T14:44:49.413Z,85.50
2018-12-22T14:47:18.689Z,85.80
2018-12-22T14:49:47.001Z,85.90
2018-12-22T14:52:15.281Z,86.10
2018-12-22T14:54:43.554Z,86.40
2018-12-22T14:57:12.032Z,86.30
2018-12-22T14:59:40.095Z,86.40
2018-12-22T15:02:09.828Z,86.90
2018-12-22T15:04:38.229Z,87.30
2018-12-22T15:07:07.333Z,87.50
2018-12-22T15:09:36.593Z,87.70
2018-12-22T15:12:05.439Z,87.60
2018-12-22T15:14:33.693Z,87.60
2018-12-22T15:17:01.967Z,88.00
2018-12-22T15:19:30.630Z,87.90
2018-12-22T15:22:00.206Z,88.00
2018-12-22T15:24:28.441Z,88.30
2018-12-22T15:26:56.693Z,88.50
2018-12-22T15:29:24.990Z,88.60
2018-12-22T15:31:53.309Z,89.00
2018-12-22T15:34:21.609Z,89.10
2018-12-22T15:36:49.855Z,89.70
2018-12-22T15:39:18.161Z,90.20
2018-12-22T15:41:46.353Z,90.40
2018-12-22T15:44:14.619Z,90.70
2018-12-22T15:46:42.873Z,91.10
2018-12-22T15:49:12.179Z,91.30
2018-12-22T15:51:40.521Z,91.70
2018-12-22T15:54:09.445Z,91.90
2018-12-22T15:56:37.707Z,91.90
2018-12-22T15:59:05.934Z,91.90
2018-12-22T16:01:34.218Z,91.90
2018-12-22T16:04:02.444Z,91.90
2018-12-22T16:06:30.741Z,91.90
2018-12-22T16:08:59.961Z,91.90
2018-12-22T16:11:28.270Z,91.90
2018-12-22T16:13:56.515Z,91.90
2018-12-22T16:16:24.849Z,91.90
2018-12-22T16:18:53.181Z,91.90
2018-12-22T16:21:22.410Z,91.90
2018-12-22T16:23:50.694Z,91.90
2018-12-22T16:26:19.078Z,91.90
2018-12-22T16:28:53.201Z,91.90
2018-12-22T16:31:21.426Z,91.90
2018-12-22T16:33:49.706Z,91.90
2018-12-22T16:36:18.021Z,91.90
2018-12-22T16:38:46.317Z,91.90
2018-12-22T16:41:14.557Z,91.90
2018-12-22T16:43:43.436Z,91.90
2018-12-22T16:46:11.688Z,91.90
2018-12-22T16:48:42.781Z,91.90
2018-12-22T16:51:11.030Z,91.90
2018-12-22T16:53:39.335Z,91.90
2018-12-22T16:56:08.555Z,91.90
2018-12-22T16:58:39.186Z,91.90
2018-12-22T17:01:15.568Z,91.90
2018-12-22T17:03:43.938Z,91.90
2018-12-22T17:06:13.085Z,91.90
2018-12-22T17:08:41.377Z,91.90
2018-12-22T17:11:09.664Z,91.90
2018-12-22T17:13:37.990Z,91.90
2018-12-22T17:16:06.562Z,91.90
2018-12-22T17:18:34.773Z,91.90
2018-12-22T17:21:26.534Z,91.90
2018-12-22T17:24:05.509Z,91.90
2018-12-22T17:26:36.105Z,91.90
2018-12-22T17:29:04.361Z,91.90
2018-12-22T17:31:32.648Z,91.90
2018-12-22T17:34:00.907Z,91.90
2018-12-22T17:36:29.104Z,91.90
2018-12-22T17:38:57.348Z,91.90
2018-12-22T17:41:25.600Z,91.90
2018-12-22T17:43:53.852Z,91.90
2018-12-22T17:46:22.100Z,91.90
2018-12-22T17:48:50.419Z,91.90
2018-12-22T17:51:18.640Z,91.90
2018-12-22T17:53:47.203Z,91.90
2018-12-22T17:56:15.444Z,91.90
2018-12-22T17:58:43.685Z,91.90
2018-12-22T18:01:11.979Z,91.90
2018-12-22T18:03:40.198Z,91.90
2018-12-22T18:06:08.471Z,91.90
2018-12-22T18:08:36.745Z,91.90
2018-12-22T18:11:05.594Z,91.90
2018-12-22T18:13:34.528Z,91.90
2018-12-22T18:16:03.130Z,91.90
2018-12-22T18:18:31.329Z,91.90
2018-12-22T18:21:00.106Z,91.90
2018-12-22T18:23:28.435Z,91.90
2018-12-22T18:25:56.721Z,91.90
2018-12-22T18:28:25.022Z,91.90
2018-12-22T18:30:53.261Z,91.90
2018-12-22T18:33:21.506Z,91.90
2018-12-22T18:35:49.746Z,91.90
2018-12-22T18:38:18.099Z,91.90
2018-12-22T18:40:46.340Z,91.90
2018-12-22T18:43:15.180Z,91.90
2018-12-22T18:45:43.436Z,91.90
2018-12-22T18:48:11.756Z,91.90
2018-12-22T18:50:40.014Z,91.90
2018-12-22T18:53:08.417Z,91.90
2018-12-22T18:55:36.658Z,91.90
2018-12-22T18:58:07.181Z,91.90
2018-12-22T19:00:35.406Z,91.90
2018-12-22T19:03:03.604Z,91.90
2018-12-22T19:05:31.838Z,91.90
2018-12-22T19:08:05.024Z,91.90
2018-12-22T19:10:39.088Z,91.90
2018-12-22T19:13:07.427Z,91.90
2018-12-22T19:15:35.743Z,91.90
2018-12-22T19:18:04.034Z,91.90
2018-12-22T19:20:48.189Z,91.90
2018-12-22T19:23:17.058Z,91.90
2018-12-22T19:25:46.236Z,91.90
2018-12-22T19:28:14.591Z,91.90
2018-12-22T19:30:44.443Z,91.90
2018-12-22T19:33:11.118Z,91.90
2018-12-22T19:35:39.410Z,91.90
2018-12-22T19:38:07.573Z,91.90
2018-12-22T19:40:35.744Z,91.90
2018-12-22T19:43:03.959Z,91.90
2018-12-22T19:45:32.223Z,91.90
2018-12-22T19:48:01.360Z,91.90
2018-12-22T19:50:29.536Z,91.90
2018-12-22T19:52:58.052Z,91.90
2018-12-22T19:55:26.230Z,91.90
2018-12-22T19:57:55.503Z,91.90
2018-12-22T20:00:25.214Z,91.90
2018-12-22T20:02:53.929Z,91.90
2018-12-22T20:05:22.209Z,91.90
2018-12-22T20:07:50.437Z,91.90
2018-12-22T20:10:18.719Z,91.90
2018-12-22T20:12:46.936Z,91.90
2018-12-22T20:15:15.205Z,91.90
2018-12-22T20:17:43.431Z,91.90
2018-12-22T20:20:11.676Z,91.90
2018-12-22T20:22:39.887Z,91.90
2018-12-22T20:25:08.153Z,91.90
2018-12-22T20:27:36.409Z,91.90
2018-12-22T20:30:05.393Z,91.90
2018-12-22T20:32:34.017Z,91.90
2018-12-22T20:35:02.261Z,91.90
2018-12-22T20:37:30.522Z,91.90
2018-12-22T20:39:58.842Z,91.90
2018-12-22T20:42:27.113Z,91.90
2018-12-22T20:44:55.351Z,91.90
2018-12-22T20:47:23.611Z,91.90
2018-12-22T20:49:51.891Z,91.90
2018-12-22T20:52:20.449Z,91.90
2018-12-22T20:54:48.641Z,91.90
2018-12-22T20:57:16.943Z,91.90
2018-12-22T20:59:45.141Z,91.90
2018-12-22T21:02:13.429Z,91.90
2018-12-22T21:04:41.656Z,91.90
2018-12-22T21:07:09.985Z,91.90
2018-12-22T21:09:38.232Z,91.90
2018-12-22T21:12:06.477Z,91.90
2018-12-22T21:14:34.717Z,91.90
2018-12-22T21:17:04.008Z,91.90
2018-12-22T21:19:32.867Z,91.90
2018-12-22T21:22:01.133Z,91.90
2018-12-22T21:24:29.361Z,91.90
2018-12-22T21:26:57.593Z,91.90
2018-12-22T21:29:25.886Z,91.90
2018-12-22T21:31:54.132Z,91.90
2018-12-22T21:34:28.260Z,91.90
2018-12-22T21:36:51.209Z,91.90
2018-12-22T21:39:19.431Z,91.90
2018-12-22T21:41:47.736Z,91.90
2018-12-22T21:44:16.083Z,91.90
2018-12-22T21:46:44.402Z,91.90
2018-12-22T21:49:13.381Z,91.90
2018-12-22T21:51:41.670Z,91.90
2018-12-22T21:54:09.897Z,91.90
2018-12-22T21:56:38.151Z,91.90
2018-12-22T21:59:06.398Z,91.90
2018-12-22T22:01:34.713Z,91.90
2018-12-22T22:04:02.969Z,91.90
2018-12-22T22:06:31.238Z,91.90
2018-12-22T22:08:59.639Z,91.90
2018-12-22T22:11:28.806Z,91.90
2018-12-22T22:13:57.639Z,91.90
2018-12-22T22:16:25.852Z,91.90
2018-12-22T22:18:54.142Z,91.90
2018-12-22T22:21:22.462Z,91.90
2018-12-22T22:23:50.773Z,91.90
2018-12-22T22:26:19.043Z,91.90
2018-12-22T22:28:47.257Z,91.90
2018-12-22T22:31:15.515Z,91.90
2018-12-22T22:33:43.738Z,91.90
2018-12-22T22:36:11.973Z,91.90
2018-12-22T22:38:40.189Z,91.90
2018-12-22T22:41:08.417Z,91.90
2018-12-22T22:43:37.683Z,91.90
2018-12-22T22:46:06.005Z,91.90
2018-12-22T22:48:34.245Z,91.90
2018-12-22T22:51:03.211Z,91.90
2018-12-22T22:53:31.449Z,91.90
2018-12-22T22:55:59.653Z,91.90
2018-12-22T22:58:27.869Z,91.90
2018-12-22T23:00:56.130Z,91.90
2018-12-22T23:03:24.483Z,91.90
2018-12-22T23:05:52.577Z,91.90
2018-12-22T23:08:20.832Z,91.90
2018-12-22T23:10:49.045Z,91.90
2018-12-22T23:13:17.283Z,91.90
2018-12-22T23:15:46.124Z,91.90
2018-12-22T23:18:14.381Z,91.90
2018-12-22T23:20:42.622Z,91.90
2018-12-22T23:23:10.922Z,91.90
2018-12-22T23:25:39.164Z,91.90
2018-12-22T23:28:07.377Z,91.90
2018-12-22T23:30:35.623Z,91.90
2018-12-22T23:33:03.845Z,91.90
2018-12-22T23:35:32.099Z,91.90
2018-12-22T23:38:00.405Z,91.90
2018-12-22T23:40:28.630Z,91.90
2018-12-22T23:42:56.854Z,91.90
2018-12-22T23:45:25.182Z,91.90
2018-12-22T23:47:53.438Z,91.90
2018-12-22T23:50:21.709Z,91.90
2018-12-22T23:52:50.631Z,91.90
2018-12-22T23:55:18.873Z,91.90
2018-12-22T23:57:47.157Z,91.90
